Time;durP1;ratioP1;P1;durP2;ratioP2;P2;SDS_P1;SDS_P2;PMS_P1;PMS_P2;Temp;Humidity;BMP_temperature;BMP_pressure;BME280_temperature;BME280_humidity;BME280_pressure;Samples;Min_cycle;Max_cycle;Signal;HPM_P1;HPM_P2
2023/09/20 00:02:02;;;;;;;15.75;7.95;;;;;;;;;;6247203;28;20045;-64
2023/09/20 00:05:04;;;;;;;15.77;7.83;;;;;;;;;;6247576;28;20045;-65
2023/09/20 00:08:05;;;;;;;14.52;7.57;;;;;;;;;;6245485;28;20380;-65
2023/09/20 00:11:15;;;;;;;14.35;7.72;;;;;;;;;;6245584;28;20041;-64
2023/09/20 00:14:16;;;;;;;16.33;7.38;;;;;;;;;;6246263;28;20390;-65
2023/09/20 00:17:17;;;;;;;14.00;7.88;;;;;;;;;;6246422;28;20041;-64
2023/09/20 00:20:19;;;;;;;12.25;7.95;;;;;;;;;;6246792;28;20068;-64
2023/09/20 00:23:21;;;;;;;;;;;;;;;;;;6247342;28;20057;-64
2023/09/20 00:26:21;;;;;;;14.13;8.05;;;;;;;;;;6242531;28;20043;-65
2023/09/20 00:29:24;;;;;;;14.73;7.78;;;;;;;;;;6245617;28;20481;-64
2023/09/20 00:32:25;;;;;;;14.40;7.63;;;;;;;;;;6248963;28;20598;-65
2023/09/20 00:35:25;;;;;;;18.15;8.40;;;;;;;;;;6241357;28;20140;-64
2023/09/20 00:38:26;;;;;;;19.40;7.82;;;;;;;;;;6254572;28;20467;-64
2023/09/20 00:41:27;;;;;;;16.08;8.13;;;;;;;;;;6226114;28;20041;-64
2023/09/20 00:44:27;;;;;;;12.00;8.43;;;;;;;;;;6243977;28;20519;-64
2023/09/20 00:47:29;;;;;;;14.85;7.80;;;;;;;;;;6243818;28;20153;-64
2023/09/20 00:50:33;;;;;;;17.65;8.05;;;;;;;;;;6242859;28;20099;-64
2023/09/20 00:53:35;;;;;;;13.70;7.55;;;;;;;;;;6239550;28;20068;-64
2023/09/20 00:56:35;;;;;;;16.52;8.57;;;;;;;;;;6241752;28;20041;-64
2023/09/20 00:59:38;;;;;;;14.95;7.78;;;;;;;;;;6243357;28;20052;-64
2023/09/20 01:02:38;;;;;;;;;;;;;;;;;;6242642;28;20618;-64
2023/09/20 01:05:39;;;;;;;14.43;8.60;;;;;;;;;;6242130;28;19929;-64
2023/09/20 01:08:40;;;;;;;17.02;8.02;;;;;;;;;;6243288;28;20495;-65
2023/09/20 01:11:42;;;;;;;17.07;8.43;;;;;;;;;;6241861;28;20075;-64
2023/09/20 01:14:43;;;;;;;;;;;;;;;;;;6241063;28;20107;-65
2023/09/20 01:17:45;;;;;;;14.00;8.35;;;;;;;;;;6240060;28;19924;-64
2023/09/20 01:20:45;;;;;;;16.77;7.90;;;;;;;;;;6242668;28;20524;-65
2023/09/20 01:23:49;;;;;;;15.95;7.75;;;;;;;;;;6242569;28;20144;-64
2023/09/20 01:26:52;;;;;;;15.02;8.30;;;;;;;;;;6241004;28;20479;-63
2023/09/20 01:29:54;;;;;;;14.05;8.18;;;;;;;;;;6246788;28;20141;-64
2023/09/20 01:32:56;;;;;;;14.02;7.90;;;;;;;;;;6245517;28;20178;-65
2023/09/20 01:35:58;;;;;;;17.55;9.38;;;;;;;;;;6245060;28;20038;-64
2023/09/20 01:38:59;;;;;;;15.65;8.05;;;;;;;;;;6243009;28;20037;-64
2023/09/20 01:41:59;;;;;;;15.85;8.57;;;;;;;;;;6240293;28;20080;-64
2023/09/20 01:45:00;;;;;;;12.85;7.72;;;;;;;;;;6240074;28;20053;-65
2023/09/20 01:48:06;;;;;;;13.38;8.52;;;;;;;;;;6241845;28;20044;-65
2023/09/20 01:51:06;;;;;;;15.77;8.45;;;;;;;;;;6241336;28;20072;-65
2023/09/20 01:54:07;;;;;;;10.93;7.47;;;;;;;;;;6241159;28;20750;-65
2023/09/20 01:57:08;;;;;;;13.57;7.07;;;;;;;;;;6241768;28;20056;-64
2023/09/20 02:00:11;;;;;;;12.40;6.85;;;;;;;;;;6242156;28;20142;-66
2023/09/20 02:03:16;;;;;;;13.32;7.57;;;;;;;;;;6239857;28;20060;-66
2023/09/20 02:06:17;;;;;;;10.23;6.97;;;;;;;;;;6238198;28;20514;-66
2023/09/20 02:09:18;;;;;;;12.05;7.00;;;;;;;;;;6242153;28;20041;-65
2023/09/20 02:12:19;;;;;;;13.87;6.90;;;;;;;;;;6241630;28;20643;-64
2023/09/20 02:15:21;;;;;;;11.15;6.60;;;;;;;;;;6241308;28;20065;-66
2023/09/20 02:18:22;;;;;;;11.20;6.95;;;;;;;;;;6240701;28;20455;-63
2023/09/20 02:21:22;;;;;;;14.93;6.95;;;;;;;;;;6240782;28;20061;-64
2023/09/20 02:24:23;;;;;;;12.38;7.00;;;;;;;;;;6240620;28;20053;-65
2023/09/20 02:27:23;;;;;;;14.35;7.32;;;;;;;;;;6240301;28;20048;-65
2023/09/20 02:30:28;;;;;;;11.27;6.68;;;;;;;;;;6251906;28;20412;-64
2023/09/20 02:33:28;;;;;;;18.35;7.50;;;;;;;;;;6247106;28;20052;-65
2023/09/20 02:36:29;;;;;;;10.57;7.00;;;;;;;;;;6249822;28;20415;-63
2023/09/20 02:39:29;;;;;;;10.82;7.30;;;;;;;;;;6239105;28;20045;-63
2023/09/20 02:42:30;;;;;;;13.93;7.25;;;;;;;;;;6240122;28;20083;-64
2023/09/20 02:45:33;;;;;;;14.40;7.28;;;;;;;;;;6241414;28;20508;-64
2023/09/20 02:48:34;;;;;;;13.90;7.20;;;;;;;;;;6241273;28;20046;-65
2023/09/20 02:51:35;;;;;;;12.38;6.90;;;;;;;;;;6241892;28;20049;-66
2023/09/20 02:54:36;;;;;;;12.68;7.13;;;;;;;;;;6240502;28;20073;-65
2023/09/20 02:57:37;;;;;;;13.02;7.30;;;;;;;;;;6222096;28;20124;-64
2023/09/20 03:00:46;;;;;;;12.63;6.93;;;;;;;;;;6239881;28;20055;-64
2023/09/20 03:03:46;;;;;;;11.52;7.15;;;;;;;;;;6238393;28;20053;-64
2023/09/20 03:06:47;;;;;;;13.75;7.95;;;;;;;;;;6240157;28;20038;-65
2023/09/20 03:09:48;;;;;;;12.43;7.82;;;;;;;;;;6240213;28;20037;-64
2023/09/20 03:12:51;;;;;;;11.90;7.40;;;;;;;;;;6239153;28;20045;-63
2023/09/20 03:15:54;;;;;;;12.65;7.88;;;;;;;;;;6238031;28;20084;-66
2023/09/20 03:18:55;;;;;;;16.27;8.68;;;;;;;;;;6239693;28;20091;-64
2023/09/20 03:21:55;;;;;;;14.82;7.60;;;;;;;;;;6239607;28;20057;-64
2023/09/20 03:24:56;;;;;;;15.10;8.65;;;;;;;;;;6240700;28;20385;-64
2023/09/20 03:27:56;;;;;;;15.05;8.13;;;;;;;;;;6237835;28;20037;-64
2023/09/20 03:30:58;;;;;;;14.07;8.77;;;;;;;;;;6254025;28;20435;-63
2023/09/20 03:34:01;;;;;;;13.13;8.25;;;;;;;;;;6248907;28;20041;-63
2023/09/20 03:37:03;;;;;;;15.23;8.85;;;;;;;;;;6239454;28;20120;-63
2023/09/20 03:40:10;;;;;;;13.88;8.55;;;;;;;;;;6239930;28;20046;-65
2023/09/20 03:43:11;;;;;;;16.77;9.05;;;;;;;;;;6240264;28;20141;-64
2023/09/20 03:46:12;;;;;;;16.83;9.20;;;;;;;;;;6238171;28;20444;-64
2023/09/20 03:49:13;;;;;;;18.88;9.82;;;;;;;;;;6238392;28;20418;-63
2023/09/20 03:52:14;;;;;;;13.55;8.82;;;;;;;;;;6245019;28;20045;-64
2023/09/20 03:55:16;;;;;;;14.35;9.30;;;;;;;;;;6246257;28;20055;-63
2023/09/20 03:58:17;;;;;;;17.48;9.80;;;;;;;;;;6238868;28;20434;-65
2023/09/20 04:01:20;;;;;;;17.10;10.68;;;;;;;;;;6244214;28;20083;-63
2023/09/20 04:04:21;;;;;;;20.83;11.25;;;;;;;;;;6244243;28;20127;-63
2023/09/20 04:07:26;;;;;;;23.55;11.55;;;;;;;;;;6244598;28;20493;-64
2023/09/20 04:10:27;;;;;;;20.25;10.88;;;;;;;;;;6244698;28;20077;-64
2023/09/20 04:13:28;;;;;;;18.37;11.30;;;;;;;;;;6244572;28;20049;-65
2023/09/20 04:16:29;;;;;;;17.75;11.00;;;;;;;;;;6243510;28;20067;-65
2023/09/20 04:19:31;;;;;;;19.83;10.73;;;;;;;;;;6246860;28;20037;-63
2023/09/20 04:22:32;;;;;;;21.10;11.07;;;;;;;;;;6244301;28;20136;-66
2023/09/20 04:25:33;;;;;;;18.15;10.25;;;;;;;;;;6241613;28;20144;-64
2023/09/20 04:28:33;;;;;;;23.13;10.18;;;;;;;;;;6243584;28;20044;-64
2023/09/20 04:31:34;;;;;;;16.75;8.80;;;;;;;;;;6257048;28;20049;-65
2023/09/20 04:34:34;;;;;;;21.48;9.82;;;;;;;;;;6243639;28;20501;-65
2023/09/20 04:37:35;;;;;;;20.30;9.75;;;;;;;;;;6242952;28;20045;-65
2023/09/20 04:40:35;;;;;;;17.42;9.05;;;;;;;;;;6242791;28;20049;-65
2023/09/20 04:43:37;;;;;;;15.88;8.73;;;;;;;;;;6242184;28;20084;-64
2023/09/20 04:46:39;;;;;;;15.63;9.10;;;;;;;;;;6246575;28;20057;-61
2023/09/20 04:49:40;;;;;;;16.85;9.60;;;;;;;;;;6243424;28;20045;-62
2023/09/20 04:52:41;;;;;;;20.48;10.18;;;;;;;;;;6243403;28;20075;-61
2023/09/20 04:55:42;;;;;;;17.63;9.07;;;;;;;;;;6241605;28;20053;-58
2023/09/20 04:58:42;;;;;;;21.75;10.27;;;;;;;;;;6241131;28;20045;-61
2023/09/20 05:01:43;;;;;;;15.48;9.52;;;;;;;;;;6243799;28;20489;-61
2023/09/20 05:04:44;;;;;;;18.88;9.50;;;;;;;;;;6243323;28;20501;-61
2023/09/20 05:07:44;;;;;;;20.27;9.70;;;;;;;;;;6245867;28;20053;-61
2023/09/20 05:10:45;;;;;;;17.45;8.60;;;;;;;;;;6249222;28;20479;-61
2023/09/20 05:13:46;;;;;;;17.98;9.02;;;;;;;;;;6245240;28;20152;-60
2023/09/20 05:16:47;;;;;;;14.43;9.32;;;;;;;;;;6245050;28;20063;-61
2023/09/20 05:19:47;;;;;;;29.77;10.38;;;;;;;;;;6240659;28;20115;-61
2023/09/20 05:22:48;;;;;;;16.73;9.23;;;;;;;;;;6249348;28;20049;-61
2023/09/20 05:25:50;;;;;;;19.65;9.60;;;;;;;;;;6243330;28;20077;-60
2023/09/20 05:28:50;;;;;;;15.60;9.02;;;;;;;;;;6242164;28;20049;-61
2023/09/20 05:31:51;;;;;;;18.17;9.30;;;;;;;;;;6254123;28;20051;-61
2023/09/20 05:34:51;;;;;;;16.10;9.30;;;;;;;;;;6241061;28;20492;-61
2023/09/20 05:37:52;;;;;;;20.88;8.93;;;;;;;;;;6250853;28;20049;-61
2023/09/20 05:40:53;;;;;;;19.75;8.88;;;;;;;;;;6247034;28;20056;-61
2023/09/20 05:43:54;;;;;;;17.07;8.70;;;;;;;;;;6237699;28;20088;-61
2023/09/20 05:46:54;;;;;;;20.20;9.10;;;;;;;;;;6246080;28;20050;-62
2023/09/20 05:49:56;;;;;;;20.20;8.55;;;;;;;;;;6240712;28;20041;-61
2023/09/20 05:52:57;;;;;;;18.65;9.00;;;;;;;;;;6247413;28;20064;-60
2023/09/20 05:56:04;;;;;;;19.92;8.98;;;;;;;;;;6251853;28;20040;-61
2023/09/20 05:59:07;;;;;;;16.48;8.30;;;;;;;;;;6243767;28;20038;-61
2023/09/20 06:02:07;;;;;;;18.13;8.93;;;;;;;;;;6247705;28;20052;-61
2023/09/20 06:05:10;;;;;;;20.92;9.00;;;;;;;;;;6246009;28;20493;-61
2023/09/20 06:08:11;;;;;;;17.05;9.35;;;;;;;;;;6247322;28;20140;-61
2023/09/20 06:11:11;;;;;;;16.75;9.48;;;;;;;;;;6258307;28;20048;-63
2023/09/20 06:14:14;;;;;;;15.68;8.40;;;;;;;;;;6242203;28;20057;-61
2023/09/20 06:17:14;;;;;;;18.17;9.30;;;;;;;;;;6252905;28;20108;-58
2023/09/20 06:20:24;;;;;;;16.05;8.57;;;;;;;;;;6240102;28;20127;-61
2023/09/20 06:23:26;;;;;;;21.77;9.20;;;;;;;;;;6238870;28;20095;-61
2023/09/20 06:26:28;;;;;;;17.42;8.40;;;;;;;;;;6240448;28;20083;-60
2023/09/20 06:29:29;;;;;;;19.50;8.27;;;;;;;;;;6239165;28;20041;-61
2023/09/20 06:32:30;;;;;;;15.88;8.15;;;;;;;;;;6243004;28;20122;-61
2023/09/20 06:35:30;;;;;;;17.88;8.60;;;;;;;;;;6239150;28;20040;-61
2023/09/20 06:38:34;;;;;;;19.33;7.90;;;;;;;;;;6239955;28;20057;-61
2023/09/20 06:41:37;;;;;;;14.43;8.27;;;;;;;;;;6244426;28;20152;-61
2023/09/20 06:44:40;;;;;;;16.08;8.05;;;;;;;;;;6234490;28;20049;-60
2023/09/20 06:47:40;;;;;;;13.00;7.32;;;;;;;;;;6240619;28;20056;-61
2023/09/20 06:50:43;;;;;;;18.10;7.65;;;;;;;;;;6240938;28;20128;-59
2023/09/20 06:53:44;;;;;;;17.77;7.85;;;;;;;;;;6240026;28;20042;-61
2023/09/20 06:56:45;;;;;;;15.85;7.05;;;;;;;;;;6247989;28;20532;-60
2023/09/20 06:59:45;;;;;;;18.48;7.68;;;;;;;;;;6247214;28;20427;-61
2023/09/20 07:02:46;;;;;;;14.80;7.18;;;;;;;;;;6242497;28;20080;-61
2023/09/20 07:05:47;;;;;;;14.75;7.18;;;;;;;;;;6242540;28;20048;-61
2023/09/20 07:08:48;;;;;;;18.05;7.10;;;;;;;;;;6240937;28;20045;-61
2023/09/20 07:11:51;;;;;;;13.50;7.35;;;;;;;;;;6241416;28;20072;-60
2023/09/20 07:14:52;;;;;;;19.17;8.93;;;;;;;;;;6237834;28;20056;-60
2023/09/20 07:17:58;;;;;;;17.98;7.88;;;;;;;;;;6241382;28;20147;-61
2023/09/20 07:20:59;;;;;;;13.70;8.00;;;;;;;;;;6243608;28;20037;-61
2023/09/20 07:24:02;;;;;;;12.93;6.82;;;;;;;;;;6239952;28;20080;-60
2023/09/20 07:27:03;;;;;;;13.15;6.90;;;;;;;;;;6240416;28;20487;-61
2023/09/20 07:30:10;;;;;;;13.13;6.22;;;;;;;;;;6237060;28;20041;-60
2023/09/20 07:33:18;;;;;;;12.90;5.55;;;;;;;;;;6240106;28;20046;-61
2023/09/20 07:36:19;;;;;;;12.50;5.70;;;;;;;;;;6246542;28;20125;-61
2023/09/20 07:39:21;;;;;;;8.80;5.07;;;;;;;;;;6243289;28;20057;-61
2023/09/20 07:42:21;;;;;;;9.38;5.18;;;;;;;;;;6247545;28;20053;-61
2023/09/20 07:45:22;;;;;;;7.35;4.90;;;;;;;;;;6243217;28;20053;-61
2023/09/20 07:48:24;;;;;;;10.80;4.77;;;;;;;;;;6242574;28;20119;-61
2023/09/20 07:51:28;;;;;;;9.93;5.35;;;;;;;;;;6243945;28;20129;-61
2023/09/20 07:54:29;;;;;;;12.50;4.70;;;;;;;;;;6243192;28;20049;-60
2023/09/20 07:57:30;;;;;;;8.45;5.43;;;;;;;;;;6249499;28;20131;-61
2023/09/20 08:00:30;;;;;;;9.93;4.80;;;;;;;;;;6254484;28;20037;-60
2023/09/20 08:03:38;;;;;;;8.15;4.68;;;;;;;;;;6250638;28;20045;-61
2023/09/20 08:06:40;;;;;;;9.15;4.65;;;;;;;;;;6247566;28;20046;-60
2023/09/20 08:09:41;;;;;;;11.05;4.10;;;;;;;;;;6242916;28;20037;-61
2023/09/20 08:12:41;;;;;;;8.57;4.57;;;;;;;;;;6245023;28;20412;-60
2023/09/20 08:15:42;;;;;;;7.17;4.13;;;;;;;;;;6242989;28;20472;-59
2023/09/20 08:22:02;;;;;;;9.82;4.07;;;;;;;;;;6246028;28;20148;-60
2023/09/20 09:01:38;;;;;;;7.90;4.03;;;;;;;;;;6240463;28;20485;-59
2023/09/20 09:04:39;;;;;;;7.55;3.63;;;;;;;;;;6255268;28;20033;-63
2023/09/20 09:07:40;;;;;;;10.25;3.67;;;;;;;;;;6250058;28;20909;-61
2023/09/20 09:10:41;;;;;;;8.03;3.50;;;;;;;;;;6243371;28;20049;-61
2023/09/20 09:13:41;;;;;;;6.17;3.57;;;;;;;;;;6242935;28;20270;-61
2023/09/20 09:16:42;;;;;;;6.93;3.47;;;;;;;;;;6242833;28;20634;-61
2023/09/20 09:19:43;;;;;;;5.50;3.30;;;;;;;;;;6240186;28;21380;-61
2023/09/20 09:22:44;;;;;;;9.77;3.50;;;;;;;;;;6240561;28;20382;-61
2023/09/20 09:25:45;;;;;;;8.38;3.50;;;;;;;;;;6243173;28;21014;-61
2023/09/20 09:28:46;;;;;;;8.10;4.00;;;;;;;;;;6241220;28;20509;-61
2023/09/20 09:31:50;;;;;;;9.18;3.22;;;;;;;;;;6249986;28;20053;-61
2023/09/20 09:34:51;;;;;;;6.95;3.33;;;;;;;;;;6240720;28;20048;-61
2023/09/20 09:37:52;;;;;;;5.22;3.15;;;;;;;;;;6244248;28;20087;-61
2023/09/20 09:40:55;;;;;;;5.77;2.77;;;;;;;;;;6245867;28;20496;-61
2023/09/20 09:43:59;;;;;;;8.40;3.05;;;;;;;;;;6241099;28;20076;-62
2023/09/20 09:46:59;;;;;;;7.15;2.80;;;;;;;;;;6239598;28;20064;-61
2023/09/20 09:50:02;;;;;;;6.90;3.17;;;;;;;;;;6241406;28;20408;-61
2023/09/20 09:53:05;;;;;;;8.38;2.92;;;;;;;;;;6243219;28;20526;-61
2023/09/20 09:56:06;;;;;;;6.90;2.83;;;;;;;;;;6245399;28;20045;-61
2023/09/20 09:59:07;;;;;;;6.73;2.97;;;;;;;;;;6240379;28;20320;-62
2023/09/20 10:02:17;;;;;;;9.20;2.60;;;;;;;;;;6241580;28;20404;-59
2023/09/20 10:05:20;;;;;;;6.18;2.90;;;;;;;;;;6255238;28;20057;-71
2023/09/20 10:08:22;;;;;;;8.32;3.10;;;;;;;;;;6238706;28;20438;-61
2023/09/20 10:11:23;;;;;;;;;;;;;;;;;;6246443;28;20094;-60
2023/09/20 10:14:23;;;;;;;7.55;3.33;;;;;;;;;;6240055;28;19925;-61
2023/09/20 10:17:30;;;;;;;6.90;3.93;;;;;;;;;;6242461;28;20413;-59
2023/09/20 10:20:58;;;;;;;9.77;3.08;;;;;;;;;;6238458;28;20048;-61
2023/09/20 10:24:02;;;;;;;9.52;3.20;;;;;;;;;;6239103;28;20041;-61
2023/09/20 10:27:07;;;;;;;6.03;2.80;;;;;;;;;;6238877;28;20171;-61
2023/09/20 10:30:10;;;;;;;8.90;2.83;;;;;;;;;;6238011;28;20087;-61
2023/09/20 10:33:13;;;;;;;6.43;2.65;;;;;;;;;;6242901;28;20037;-61
2023/09/20 10:36:24;;;;;;;7.50;2.70;;;;;;;;;;6245925;28;20132;-61
2023/09/20 10:39:25;;;;;;;7.33;3.03;;;;;;;;;;6239087;28;20507;-62
2023/09/20 10:42:26;;;;;;;5.43;2.83;;;;;;;;;;6240469;28;20079;-60
2023/09/20 10:45:31;;;;;;;7.82;3.33;;;;;;;;;;6238671;28;20052;-61
2023/09/20 10:48:33;;;;;;;6.32;2.80;;;;;;;;;;6240571;28;20038;-61
2023/09/20 10:51:52;;;;;;;7.68;3.25;;;;;;;;;;6236161;28;20072;-61
2023/09/20 10:55:20;;;;;;;6.05;2.80;;;;;;;;;;6238535;28;20037;-60
2023/09/20 10:58:23;;;;;;;6.75;2.90;;;;;;;;;;6237558;28;20497;-61
2023/09/20 11:01:24;;;;;;;6.85;3.05;;;;;;;;;;6238588;28;20045;-59
2023/09/20 11:04:26;;;;;;;6.57;2.97;;;;;;;;;;6239328;28;20071;-61
2023/09/20 11:07:26;;;;;;;6.47;2.83;;;;;;;;;;6244558;28;20073;-61
2023/09/20 11:10:28;;;;;;;5.17;2.57;;;;;;;;;;6237599;28;20401;-64
2023/09/20 11:13:28;;;;;;;8.40;3.00;;;;;;;;;;6237178;28;20064;-61
2023/09/20 11:16:29;;;;;;;6.70;2.90;;;;;;;;;;6239975;28;20049;-61
2023/09/20 11:19:32;;;;;;;10.05;3.20;;;;;;;;;;6237066;28;20041;-61
2023/09/20 11:22:34;;;;;;;9.00;3.17;;;;;;;;;;6237804;28;20057;-62
2023/09/20 11:25:34;;;;;;;5.93;3.00;;;;;;;;;;6241713;28;20064;-61
2023/09/20 11:28:37;;;;;;;5.82;2.80;;;;;;;;;;6240546;28;20856;-61
2023/09/20 11:31:38;;;;;;;6.38;2.97;;;;;;;;;;6239737;28;20110;-61
2023/09/20 11:34:49;;;;;;;6.45;2.95;;;;;;;;;;6238398;28;20061;-61
2023/09/20 11:37:49;;;;;;;5.65;2.85;;;;;;;;;;6242006;28;20397;-62
2023/09/20 11:40:51;;;;;;;5.67;2.73;;;;;;;;;;6251537;28;20094;-62
2023/09/20 11:43:58;;;;;;;4.87;3.00;;;;;;;;;;6251562;28;20044;-62
2023/09/20 11:47:00;;;;;;;6.07;3.00;;;;;;;;;;6242011;28;20493;-61
2023/09/20 11:50:04;;;;;;;6.20;2.80;;;;;;;;;;6246774;28;20041;-61
2023/09/20 11:53:05;;;;;;;6.05;2.30;;;;;;;;;;6239359;28;20420;-61
2023/09/20 11:56:06;;;;;;;5.87;2.70;;;;;;;;;;6238246;28;20049;-62
2023/09/20 11:59:10;;;;;;;9.17;3.13;;;;;;;;;;6238047;28;20081;-61
2023/09/20 12:02:12;;;;;;;5.00;2.65;;;;;;;;;;6241337;28;20045;-62
2023/09/20 12:05:13;;;;;;;5.85;2.50;;;;;;;;;;6237606;28;20045;-62
2023/09/20 12:08:14;;;;;;;6.33;2.40;;;;;;;;;;6237466;28;20048;-61
2023/09/20 12:11:15;;;;;;;5.22;2.50;;;;;;;;;;6236541;28;20057;-60
2023/09/20 12:14:16;;;;;;;5.00;2.20;;;;;;;;;;6236659;28;20061;-62
2023/09/20 12:17:17;;;;;;;;;;;;;;;;;;6238174;28;20046;-62
2023/09/20 12:20:18;;;;;;;6.10;2.30;;;;;;;;;;6238920;28;19925;-61
2023/09/20 12:23:19;;;;;;;5.07;2.22;;;;;;;;;;6248850;28;20419;-62
2023/09/20 12:26:19;;;;;;;6.17;2.63;;;;;;;;;;6243831;28;20038;-61
2023/09/20 12:29:20;;;;;;;7.23;2.57;;;;;;;;;;6242854;28;20045;-61
2023/09/20 12:32:20;;;;;;;5.97;2.37;;;;;;;;;;6243091;28;20046;-61
2023/09/20 12:35:21;;;;;;;4.60;2.40;;;;;;;;;;6243735;28;20562;-62
2023/09/20 12:38:22;;;;;;;5.27;2.40;;;;;;;;;;6241852;28;20107;-61
2023/09/20 12:41:25;;;;;;;16.00;3.83;;;;;;;;;;6245018;28;20037;-61
2023/09/20 12:44:26;;;;;;;5.72;2.78;;;;;;;;;;6240324;28;20057;-62
2023/09/20 12:47:27;;;;;;;4.78;2.90;;;;;;;;;;6254654;28;20451;-61
2023/09/20 12:50:33;;;;;;;5.83;2.87;;;;;;;;;;6242117;28;20064;-61
2023/09/20 12:53:34;;;;;;;9.65;2.95;;;;;;;;;;6244262;28;20508;-61
2023/09/20 12:56:38;;;;;;;5.87;2.73;;;;;;;;;;6244368;28;20128;-61
2023/09/20 12:59:39;;;;;;;5.82;2.80;;;;;;;;;;6240591;28;20099;-62
2023/09/20 13:02:42;;;;;;;5.45;2.90;;;;;;;;;;6243464;28;20080;-62
2023/09/20 13:05:44;;;;;;;5.82;3.13;;;;;;;;;;6245083;28;20075;-62
2023/09/20 13:08:45;;;;;;;5.75;2.90;;;;;;;;;;6243504;28;20084;-61
2023/09/20 13:11:46;;;;;;;;;;;;;;;;;;6241980;28;20060;-62
2023/09/20 13:14:46;;;;;;;8.82;2.60;;;;;;;;;;6240195;28;19999;-62
2023/09/20 13:17:55;;;;;;;5.33;2.70;;;;;;;;;;6244994;28;20033;-62
2023/09/20 13:20:58;;;;;;;6.05;2.65;;;;;;;;;;6242710;28;20099;-62
2023/09/20 13:23:59;;;;;;;6.82;2.80;;;;;;;;;;6244458;28;20041;-62
2023/09/20 13:26:59;;;;;;;5.70;2.45;;;;;;;;;;6247276;28;20538;-61
2023/09/20 13:30:00;;;;;;;7.60;2.63;;;;;;;;;;6246403;28;20090;-62
2023/09/20 13:33:01;;;;;;;8.60;2.60;;;;;;;;;;6247626;28;20608;-61
2023/09/20 13:36:02;;;;;;;6.65;2.67;;;;;;;;;;6251366;28;20400;-62
2023/09/20 13:39:03;;;;;;;8.93;3.20;;;;;;;;;;6248692;28;20095;-62
2023/09/20 13:42:03;;;;;;;7.97;2.70;;;;;;;;;;6247614;28;20569;-62
2023/09/20 13:45:07;;;;;;;6.37;2.50;;;;;;;;;;6243560;28;20130;-62
2023/09/20 13:48:11;;;;;;;9.98;3.17;;;;;;;;;;6250298;28;20506;-62
2023/09/20 13:51:18;;;;;;;4.65;2.30;;;;;;;;;;6249610;28;20445;-62
2023/09/20 13:54:18;;;;;;;6.35;2.58;;;;;;;;;;6228139;28;20933;-62
2023/09/20 13:57:19;;;;;;;6.17;2.80;;;;;;;;;;6247494;28;20045;-61
2023/09/20 14:00:20;;;;;;;6.60;2.75;;;;;;;;;;6248464;28;20442;-61
2023/09/20 14:03:21;;;;;;;8.07;2.67;;;;;;;;;;6245439;28;20052;-62
2023/09/20 14:06:22;;;;;;;6.38;2.65;;;;;;;;;;6244008;28;20532;-62
2023/09/20 14:09:23;;;;;;;5.60;2.60;;;;;;;;;;6243321;28;20080;-61
2023/09/20 14:12:24;;;;;;;4.68;2.50;;;;;;;;;;6245733;28;20045;-65
2023/09/20 14:15:25;;;;;;;6.80;2.93;;;;;;;;;;6247722;28;20132;-60
2023/09/20 14:18:26;;;;;;;5.97;2.72;;;;;;;;;;6252383;28;20417;-61
2023/09/20 14:21:26;;;;;;;6.20;3.00;;;;;;;;;;6248164;28;20090;-61
2023/09/20 14:24:28;;;;;;;9.90;3.13;;;;;;;;;;6249448;28;20056;-61
2023/09/20 14:27:28;;;;;;;6.80;2.63;;;;;;;;;;6245184;28;20100;-61
2023/09/20 14:30:33;;;;;;;5.20;3.10;;;;;;;;;;6246886;28;20135;-61
2023/09/20 14:33:33;;;;;;;6.32;2.72;;;;;;;;;;6246816;28;20546;-61
2023/09/20 14:36:34;;;;;;;6.43;2.80;;;;;;;;;;6244807;28;20059;-61
2023/09/20 14:39:36;;;;;;;6.60;2.53;;;;;;;;;;6248720;28;20055;-62
2023/09/20 14:42:36;;;;;;;7.50;2.90;;;;;;;;;;6247184;28;20729;-61
2023/09/20 14:45:37;;;;;;;8.97;2.93;;;;;;;;;;6243204;28;20049;-62
2023/09/20 14:48:38;;;;;;;7.30;2.80;;;;;;;;;;6251070;28;20037;-61
2023/09/20 14:51:38;;;;;;;7.53;2.53;;;;;;;;;;6250439;28;20092;-61
2023/09/20 14:54:39;;;;;;;7.53;2.50;;;;;;;;;;6247180;28;20133;-66
2023/09/20 14:57:41;;;;;;;7.13;3.03;;;;;;;;;;6254668;28;20048;-61
2023/09/20 15:00:42;;;;;;;8.93;2.67;;;;;;;;;;6244662;28;20075;-61
2023/09/20 15:03:43;;;;;;;6.20;2.73;;;;;;;;;;6250483;28;20052;-61
2023/09/20 15:06:44;;;;;;;5.30;2.78;;;;;;;;;;6251312;28;20053;-71
2023/09/20 15:09:46;;;;;;;7.07;2.80;;;;;;;;;;6251204;28;20532;-61
2023/09/20 15:12:49;;;;;;;5.72;2.45;;;;;;;;;;6249660;28;20462;-62
2023/09/20 15:15:50;;;;;;;11.60;2.90;;;;;;;;;;6245330;28;20561;-61
2023/09/20 15:18:51;;;;;;;6.33;2.53;;;;;;;;;;6249482;28;20057;-61
2023/09/20 15:21:51;;;;;;;7.00;2.77;;;;;;;;;;6248262;28;20385;-65
2023/09/20 15:24:52;;;;;;;5.47;2.40;;;;;;;;;;6248683;28;20069;-62
2023/09/20 15:27:55;;;;;;;5.30;2.80;;;;;;;;;;6249075;28;20040;-61
2023/09/20 15:30:57;;;;;;;7.07;2.53;;;;;;;;;;6250387;28;20061;-61
2023/09/20 15:33:58;;;;;;;6.45;2.40;;;;;;;;;;6251421;28;20049;-61
2023/09/20 15:36:59;;;;;;;5.60;2.20;;;;;;;;;;6247674;28;20094;-61
2023/09/20 15:40:03;;;;;;;5.93;2.73;;;;;;;;;;6248269;28;20037;-61
2023/09/20 15:43:07;;;;;;;4.82;2.50;;;;;;;;;;6248566;28;20043;-62
2023/09/20 15:46:07;;;;;;;6.30;2.50;;;;;;;;;;6248898;28;20041;-66
2023/09/20 15:49:08;;;;;;;6.22;3.28;;;;;;;;;;6250525;28;20045;-67
2023/09/20 15:52:12;;;;;;;5.83;2.80;;;;;;;;;;6243795;28;20570;-60
2023/09/20 15:55:14;;;;;;;5.65;2.80;;;;;;;;;;6251146;28;20053;-61
2023/09/20 15:58:15;;;;;;;5.57;2.50;;;;;;;;;;6254713;28;20443;-62
2023/09/20 16:01:18;;;;;;;6.93;2.80;;;;;;;;;;6249731;28;20405;-64
2023/09/20 16:04:20;;;;;;;6.53;3.10;;;;;;;;;;6233783;28;20124;-66
2023/09/20 16:07:22;;;;;;;6.45;3.10;;;;;;;;;;6250976;28;20095;-62
2023/09/20 16:10:22;;;;;;;12.00;4.80;;;;;;;;;;6257320;28;20474;-65
2023/09/20 16:13:23;;;;;;;11.00;3.53;;;;;;;;;;6250966;28;20053;-62
2023/09/20 16:16:23;;;;;;;5.17;2.93;;;;;;;;;;6255329;28;20052;-63
2023/09/20 16:19:25;;;;;;;10.40;3.20;;;;;;;;;;6250552;28;20825;-63
2023/09/20 16:22:26;;;;;;;7.50;3.05;;;;;;;;;;6247793;28;20132;-70
2023/09/20 16:25:27;;;;;;;8.80;3.10;;;;;;;;;;6255777;28;20124;-65
2023/09/20 16:28:27;;;;;;;8.33;2.87;;;;;;;;;;6253862;28;20049;-65
2023/09/20 16:31:28;;;;;;;5.17;2.70;;;;;;;;;;6249208;28;20723;-69
2023/09/20 16:34:28;;;;;;;9.73;2.63;;;;;;;;;;6251915;28;20057;-63
2023/09/20 16:37:30;;;;;;;7.83;2.70;;;;;;;;;;6231186;28;20090;-62
2023/09/20 16:40:31;;;;;;;;;;;;;;;;;;6253685;28;20056;-63
2023/09/20 16:43:33;;;;;;;6.25;2.83;;;;;;;;;;6242147;28;20039;-63
2023/09/20 16:46:34;;;;;;;5.70;2.70;;;;;;;;;;6253713;28;20045;-66
2023/09/20 16:49:35;;;;;;;9.25;3.35;;;;;;;;;;6251309;28;20045;-61
2023/09/20 16:52:37;;;;;;;6.93;3.20;;;;;;;;;;6252187;28;20906;-63
2023/09/20 16:55:38;;;;;;;11.55;3.85;;;;;;;;;;6254946;28;20163;-61
2023/09/20 16:58:40;;;;;;;6.30;3.13;;;;;;;;;;6253357;28;20053;-62
2023/09/20 17:01:41;;;;;;;7.13;3.10;;;;;;;;;;6246695;28;20546;-62
2023/09/20 17:04:42;;;;;;;9.20;3.43;;;;;;;;;;6247634;28;20045;-62
2023/09/20 17:07:44;;;;;;;9.05;3.20;;;;;;;;;;6248285;28;20403;-62
2023/09/20 17:10:44;;;;;;;6.73;3.60;;;;;;;;;;6245438;28;20044;-70
2023/09/20 17:13:45;;;;;;;6.00;3.27;;;;;;;;;;6248563;28;20287;-72
2023/09/20 17:16:45;;;;;;;7.03;3.20;;;;;;;;;;6255461;28;20480;-66
2023/09/20 17:19:46;;;;;;;6.50;3.10;;;;;;;;;;6249193;28;20045;-63
2023/09/20 17:22:47;;;;;;;7.17;3.50;;;;;;;;;;6246872;28;20053;-62
2023/09/20 17:25:48;;;;;;;7.23;3.60;;;;;;;;;;6255431;28;20123;-61
2023/09/20 17:28:50;;;;;;;9.13;3.20;;;;;;;;;;6253763;28;20056;-61
2023/09/20 17:31:57;;;;;;;6.90;3.22;;;;;;;;;;6253667;28;20128;-68
2023/09/20 17:34:58;;;;;;;7.32;3.55;;;;;;;;;;6250707;28;20126;-63
2023/09/20 17:37:59;;;;;;;9.98;3.75;;;;;;;;;;6249425;28;20067;-62
2023/09/20 17:41:06;;;;;;;7.63;3.70;;;;;;;;;;6250812;28;20049;-66
2023/09/20 17:44:08;;;;;;;11.75;3.65;;;;;;;;;;6249611;28;20064;-66
2023/09/20 17:47:08;;;;;;;10.48;3.22;;;;;;;;;;6254273;28;20053;-63
2023/09/20 17:50:09;;;;;;;5.90;3.47;;;;;;;;;;6247512;28;20048;-67
2023/09/20 17:53:10;;;;;;;13.40;3.70;;;;;;;;;;6249870;28;20107;-65
2023/09/20 17:56:11;;;;;;;8.55;3.72;;;;;;;;;;6250033;28;20924;-65
2023/09/20 17:59:13;;;;;;;14.43;6.93;;;;;;;;;;6253931;28;20060;-67
2023/09/20 18:02:15;;;;;;;21.33;9.80;;;;;;;;;;6251189;28;20504;-60
2023/09/20 18:05:16;;;;;;;13.52;7.57;;;;;;;;;;6243742;28;20530;-60
2023/09/20 18:08:18;;;;;;;11.75;6.65;;;;;;;;;;6236867;28;20052;-62
2023/09/20 18:11:18;;;;;;;;;;;;;;;;;;6252519;28;20056;-63
2023/09/20 18:14:19;;;;;;;9.23;4.72;;;;;;;;;;6250307;28;20395;-62
2023/09/20 18:17:20;;;;;;;11.63;5.30;;;;;;;;;;6230731;28;20064;-65
2023/09/20 18:20:21;;;;;;;12.00;5.60;;;;;;;;;;6252158;28;20051;-64
2023/09/20 18:23:24;;;;;;;12.53;5.67;;;;;;;;;;6252538;28;20057;-66
2023/09/20 18:26:26;;;;;;;9.20;4.43;;;;;;;;;;6250846;28;20520;-66
2023/09/20 18:29:26;;;;;;;10.45;4.35;;;;;;;;;;6249112;28;20084;-64
2023/09/20 18:32:27;;;;;;;12.57;4.67;;;;;;;;;;6247180;28;20176;-64
2023/09/20 18:35:29;;;;;;;8.80;4.53;;;;;;;;;;6251312;28;20501;-64
2023/09/20 18:38:30;;;;;;;9.40;4.50;;;;;;;;;;6247808;28;20053;-66
2023/09/20 18:41:30;;;;;;;9.43;4.37;;;;;;;;;;6252588;28;20038;-65
2023/09/20 18:44:31;;;;;;;14.00;4.75;;;;;;;;;;6241037;28;20057;-66